RYR6DD EGSS-LEPA
Flight info
| Callsign | RYR6DD |
|---|---|
| Flight time | 2h 6m |
| Altitude | 35000 |
| Route | NUGBO1S NUGBO M183 SILVA Q41 COWLY UT71 VAPID UN859 SOPIL DCT BALAN DCT EVPOK DCT NARAK DCT GAI DCT LOMRA DCT ROCAN DCT IBRAP N13 LORES LORES1P |
| Aircraft | A320/M-SDE3FGHIRWY/LB1 |
Departure
| Time | 2026-05-04 12:21 |
|---|---|
| Airport | London Stansted Airport (EGSS) |
Arrival
| Time | 2026-05-04 14:28 |
|---|---|
| Airport | Palma de Mallorca Airport (LEPA) |
| Time | Latitude | Longitude | Altitude | Speed | Heading |
|---|---|---|---|---|---|
| 2026-05-04 11:52 | 51.89079 | 0.25613 | 353 ft | 0 kts | 43° |
| 2026-05-04 12:10 | 51.89069 | 0.25597 | 349 ft | 4 kts | 43° |
| 2026-05-04 12:10 | 51.89053 | 0.25575 | 349 ft | 4 kts | 18° |
| 2026-05-04 12:10 | 51.89033 | 0.25579 | 353 ft | 4 kts | 316° |
| 2026-05-04 12:10 | 51.89017 | 0.25606 | 356 ft | 1 kts | 313° |
| 2026-05-04 12:11 | 51.89017 | 0.25607 | 349 ft | 0 kts | 313° |
| 2026-05-04 12:14 | 51.89131 | 0.25193 | 351 ft | 0 kts | 261° |
| 2026-05-04 12:15 | 51.89122 | 0.25183 | 355 ft | 5 kts | 220° |
| 2026-05-04 12:15 | 51.89081 | 0.25131 | 351 ft | 9 kts | 218° |
| 2026-05-04 12:16 | 51.89023 | 0.25048 | 357 ft | 13 kts | 223° |
| 2026-05-04 12:16 | 51.88947 | 0.24934 | 350 ft | 17 kts | 223° |
| 2026-05-04 12:16 | 51.88855 | 0.24795 | 349 ft | 20 kts | 223° |
| 2026-05-04 12:16 | 51.88744 | 0.24632 | 349 ft | 23 kts | 223° |
| 2026-05-04 12:17 | 51.88619 | 0.24443 | 349 ft | 26 kts | 223° |
| 2026-05-04 12:17 | 51.88479 | 0.24232 | 354 ft | 29 kts | 223° |
| 2026-05-04 12:17 | 51.88330 | 0.24008 | 354 ft | 30 kts | 222° |
| 2026-05-04 12:17 | 51.88173 | 0.23771 | 350 ft | 32 kts | 223° |
| 2026-05-04 12:18 | 51.88009 | 0.23525 | 349 ft | 32 kts | 223° |
| 2026-05-04 12:18 | 51.87853 | 0.23293 | 356 ft | 31 kts | 223° |
| 2026-05-04 12:18 | 51.87740 | 0.23117 | 349 ft | 13 kts | 234° |
| 2026-05-04 12:18 | 51.87766 | 0.22975 | 356 ft | 14 kts | 313° |
| 2026-05-04 12:19 | 51.87753 | 0.22845 | 355 ft | 15 kts | 224° |
| 2026-05-04 12:19 | 51.87668 | 0.22717 | 350 ft | 18 kts | 222° |
| 2026-05-04 12:19 | 51.87568 | 0.22567 | 358 ft | 20 kts | 222° |
| 2026-05-04 12:19 | 51.87525 | 0.22419 | 348 ft | 13 kts | 294° |
| 2026-05-04 12:20 | 51.87580 | 0.22324 | 335 ft | 13 kts | 318° |
| 2026-05-04 12:20 | 51.87679 | 0.22272 | 337 ft | 17 kts | 10° |
| 2026-05-04 12:20 | 51.87833 | 0.22480 | 350 ft | 56 kts | 43° |
| 2026-05-04 12:20 | 51.88275 | 0.23142 | 338 ft | 113 kts | 43° |
| 2026-05-04 12:21 | 51.88962 | 0.24170 | 337 ft | 154 kts | 43° |
| 2026-05-04 12:21 | 51.89780 | 0.25409 | 750 ft | 158 kts | 43° |
| 2026-05-04 12:21 | 51.90585 | 0.26623 | 1265 ft | 160 kts | 42° |
| 2026-05-04 12:21 | 51.91410 | 0.27853 | 1791 ft | 162 kts | 43° |
| 2026-05-04 12:22 | 51.92253 | 0.29124 | 2160 ft | 176 kts | 42° |
| 2026-05-04 12:22 | 51.93205 | 0.30557 | 2412 ft | 198 kts | 40° |
| 2026-05-04 12:22 | 51.94483 | 0.31610 | 2701 ft | 220 kts | 10° |
| 2026-05-04 12:22 | 51.96084 | 0.31863 | 3043 ft | 244 kts | 2° |
| 2026-05-04 12:23 | 51.97834 | 0.31955 | 3636 ft | 256 kts | 1° |
| 2026-05-04 12:23 | 51.99637 | 0.32028 | 4435 ft | 262 kts | 1° |
| 2026-05-04 12:23 | 52.01488 | 0.32103 | 4867 ft | 268 kts | 1° |
| 2026-05-04 12:23 | 52.03336 | 0.31854 | 4981 ft | 268 kts | 342° |
| 2026-05-04 12:24 | 52.04926 | 0.30320 | 5005 ft | 268 kts | 314° |
| 2026-05-04 12:24 | 52.05862 | 0.27734 | 5123 ft | 271 kts | 283° |
| 2026-05-04 12:24 | 52.05916 | 0.24683 | 5953 ft | 273 kts | 264° |
| 2026-05-04 12:24 | 52.05665 | 0.21617 | 6801 ft | 275 kts | 262° |
| 2026-05-04 12:25 | 52.05377 | 0.18530 | 7610 ft | 277 kts | 261° |
| 2026-05-04 12:25 | 52.05083 | 0.15418 | 8396 ft | 280 kts | 261° |
| 2026-05-04 12:25 | 52.04792 | 0.12281 | 9148 ft | 283 kts | 261° |
| 2026-05-04 12:25 | 52.04504 | 0.09102 | 9871 ft | 286 kts | 261° |
| 2026-05-04 12:26 | 52.04217 | 0.05900 | 10345 ft | 300 kts | 261° |
| 2026-05-04 12:26 | 52.03904 | 0.02419 | 10499 ft | 323 kts | 261° |
| 2026-05-04 12:26 | 52.03567 | -0.01311 | 10630 ft | 344 kts | 261° |
| 2026-05-04 12:26 | 52.03207 | -0.05245 | 10898 ft | 360 kts | 261° |
| 2026-05-04 12:27 | 52.02808 | -0.09275 | 11426 ft | 366 kts | 257° |
| 2026-05-04 12:27 | 52.02095 | -0.13255 | 12021 ft | 369 kts | 253° |
| 2026-05-04 12:27 | 52.01331 | -0.17239 | 12647 ft | 371 kts | 252° |
| 2026-05-04 12:27 | 52.00550 | -0.21251 | 13266 ft | 374 kts | 252° |
| 2026-05-04 12:28 | 51.99761 | -0.25290 | 13877 ft | 376 kts | 252° |
| 2026-05-04 12:28 | 51.98965 | -0.29347 | 14463 ft | 379 kts | 252° |
| 2026-05-04 12:28 | 51.98162 | -0.33425 | 15014 ft | 382 kts | 251° |
| 2026-05-04 12:28 | 51.97351 | -0.37563 | 15556 ft | 385 kts | 251° |
| 2026-05-04 12:29 | 51.96535 | -0.41711 | 16120 ft | 388 kts | 251° |
| 2026-05-04 12:29 | 51.95708 | -0.45894 | 16675 ft | 390 kts | 251° |
| 2026-05-04 12:29 | 51.94875 | -0.50099 | 17221 ft | 393 kts | 251° |
| 2026-05-04 12:29 | 51.94034 | -0.54330 | 17787 ft | 396 kts | 251° |
| 2026-05-04 12:30 | 51.93191 | -0.58589 | 18322 ft | 398 kts | 251° |
| 2026-05-04 12:30 | 51.92344 | -0.62874 | 18847 ft | 401 kts | 251° |
| 2026-05-04 12:30 | 51.91485 | -0.67189 | 19361 ft | 404 kts | 251° |
| 2026-05-04 12:30 | 51.90634 | -0.71450 | 19854 ft | 406 kts | 250° |
| 2026-05-04 12:31 | 51.89744 | -0.75878 | 20340 ft | 409 kts | 250° |
| 2026-05-04 12:31 | 51.88859 | -0.80254 | 20780 ft | 411 kts | 250° |
| 2026-05-04 12:31 | 51.87966 | -0.84669 | 21220 ft | 414 kts | 250° |
| 2026-05-04 12:31 | 51.87128 | -0.88742 | 21614 ft | 415 kts | 248° |
| 2026-05-04 12:32 | 51.85811 | -0.93007 | 21992 ft | 415 kts | 236° |
| 2026-05-04 12:32 | 51.81721 | -0.99528 | 22690 ft | 418 kts | 212° |
| 2026-05-04 12:32 | 51.79219 | -1.01529 | 23012 ft | 420 kts | 200° |
| 2026-05-04 12:33 | 51.76301 | -1.02725 | 23372 ft | 423 kts | 189° |
| 2026-05-04 12:33 | 51.73509 | -1.03435 | 23696 ft | 424 kts | 189° |
| 2026-05-04 12:33 | 51.70474 | -1.04207 | 24031 ft | 427 kts | 189° |
| 2026-05-04 12:33 | 51.67695 | -1.04916 | 24321 ft | 428 kts | 189° |
| 2026-05-04 12:34 | 51.64744 | -1.05674 | 24642 ft | 430 kts | 189° |
| 2026-05-04 12:34 | 51.61777 | -1.06309 | 24945 ft | 433 kts | 184° |
| 2026-05-04 12:34 | 51.58759 | -1.06322 | 25259 ft | 435 kts | 179° |
| 2026-05-04 12:34 | 51.55773 | -1.06165 | 25581 ft | 436 kts | 179° |
| 2026-05-04 12:35 | 51.52750 | -1.06003 | 26030 ft | 434 kts | 179° |
| 2026-05-04 12:35 | 51.49740 | -1.05838 | 26472 ft | 432 kts | 179° |
| 2026-05-04 12:35 | 51.46744 | -1.05674 | 26904 ft | 431 kts | 179° |
| 2026-05-04 12:35 | 51.43911 | -1.05517 | 27309 ft | 430 kts | 179° |
| 2026-05-04 12:36 | 51.40937 | -1.05352 | 27753 ft | 428 kts | 179° |
| 2026-05-04 12:36 | 51.37980 | -1.05189 | 28197 ft | 426 kts | 179° |
| 2026-05-04 12:36 | 51.35018 | -1.05025 | 28632 ft | 425 kts | 179° |
| 2026-05-04 12:36 | 51.32068 | -1.04861 | 29055 ft | 423 kts | 179° |
| 2026-05-04 12:37 | 51.30126 | -1.04754 | 29348 ft | 422 kts | 179° |
| 2026-05-04 12:37 | 51.27231 | -1.04461 | 29759 ft | 421 kts | 173° |
| 2026-05-04 12:37 | 51.24369 | -1.03484 | 30148 ft | 422 kts | 164° |
| 2026-05-04 12:37 | 51.21638 | -1.01783 | 30557 ft | 422 kts | 157° |
| 2026-05-04 12:38 | 51.18977 | -0.99829 | 30953 ft | 421 kts | 157° |
| 2026-05-04 12:38 | 51.16315 | -0.97889 | 31336 ft | 421 kts | 157° |
| 2026-05-04 12:38 | 51.13667 | -0.95968 | 31732 ft | 420 kts | 157° |
| 2026-05-04 12:38 | 51.11011 | -0.94048 | 32133 ft | 419 kts | 157° |
| 2026-05-04 12:39 | 51.08360 | -0.92131 | 32505 ft | 418 kts | 157° |
| 2026-05-04 12:39 | 51.05713 | -0.90215 | 32875 ft | 417 kts | 157° |
| 2026-05-04 12:39 | 51.03079 | -0.88307 | 33228 ft | 417 kts | 157° |
| 2026-05-04 12:39 | 51.00577 | -0.86499 | 33580 ft | 416 kts | 157° |
| 2026-05-04 12:40 | 50.97945 | -0.84598 | 33921 ft | 416 kts | 157° |
| 2026-05-04 12:40 | 50.95316 | -0.82705 | 34234 ft | 415 kts | 157° |
| 2026-05-04 12:40 | 50.92686 | -0.80813 | 34523 ft | 415 kts | 157° |
| 2026-05-04 12:40 | 50.90194 | -0.79023 | 34776 ft | 416 kts | 157° |
| 2026-05-04 12:41 | 50.87560 | -0.77136 | 34972 ft | 417 kts | 157° |
| 2026-05-04 12:41 | 50.82459 | -0.72581 | 35021 ft | 431 kts | 148° |
| 2026-05-04 12:42 | 50.77383 | -0.67397 | 35004 ft | 437 kts | 148° |
| 2026-05-04 12:42 | 50.72266 | -0.62179 | 35013 ft | 438 kts | 149° |
| 2026-05-04 12:43 | 50.67143 | -0.56977 | 35011 ft | 437 kts | 149° |
| 2026-05-04 12:43 | 50.62017 | -0.51800 | 35003 ft | 437 kts | 149° |
| 2026-05-04 12:44 | 50.56973 | -0.46728 | 35009 ft | 437 kts | 149° |
| 2026-05-04 12:44 | 50.51860 | -0.41594 | 35004 ft | 437 kts | 149° |
| 2026-05-04 12:45 | 50.46735 | -0.36453 | 35015 ft | 437 kts | 149° |
| 2026-05-04 12:45 | 50.41633 | -0.31343 | 35008 ft | 438 kts | 149° |
| 2026-05-04 12:46 | 50.36451 | -0.26177 | 35013 ft | 439 kts | 149° |
| 2026-05-04 12:46 | 50.31306 | -0.21062 | 35025 ft | 438 kts | 149° |
| 2026-05-04 12:47 | 50.26153 | -0.15955 | 35022 ft | 438 kts | 149° |
| 2026-05-04 12:47 | 50.21038 | -0.10888 | 35024 ft | 438 kts | 149° |
| 2026-05-04 12:48 | 50.15856 | -0.05767 | 35023 ft | 438 kts | 149° |
| 2026-05-04 12:48 | 50.10652 | -0.00863 | 35021 ft | 436 kts | 156° |
| 2026-05-04 12:49 | 50.04908 | 0.02010 | 35030 ft | 433 kts | 168° |
| 2026-05-04 12:49 | 49.99080 | 0.04287 | 35040 ft | 430 kts | 167° |
| 2026-05-04 12:50 | 49.93287 | 0.06581 | 35037 ft | 429 kts | 167° |
| 2026-05-04 12:50 | 49.87548 | 0.08855 | 35034 ft | 428 kts | 167° |
| 2026-05-04 12:51 | 49.81777 | 0.11112 | 35033 ft | 427 kts | 168° |
| 2026-05-04 12:51 | 49.75972 | 0.13365 | 35028 ft | 427 kts | 168° |
| 2026-05-04 12:52 | 49.70248 | 0.15594 | 35025 ft | 426 kts | 168° |
| 2026-05-04 12:52 | 49.64503 | 0.17851 | 35022 ft | 426 kts | 167° |
| 2026-05-04 12:53 | 49.58772 | 0.20171 | 35022 ft | 425 kts | 167° |
| 2026-05-04 12:53 | 49.53048 | 0.22486 | 35017 ft | 425 kts | 167° |
| 2026-05-04 12:54 | 49.47325 | 0.24788 | 35023 ft | 425 kts | 167° |
| 2026-05-04 12:54 | 49.41612 | 0.27066 | 35018 ft | 425 kts | 167° |
| 2026-05-04 12:55 | 49.35898 | 0.29348 | 35016 ft | 424 kts | 167° |
| 2026-05-04 12:55 | 49.30192 | 0.31624 | 35020 ft | 423 kts | 167° |
| 2026-05-04 12:56 | 49.24513 | 0.33992 | 35013 ft | 423 kts | 167° |
| 2026-05-04 12:56 | 49.18846 | 0.36416 | 35017 ft | 423 kts | 166° |
| 2026-05-04 12:57 | 49.13179 | 0.38827 | 35020 ft | 422 kts | 167° |
| 2026-05-04 12:57 | 49.07512 | 0.41203 | 35017 ft | 422 kts | 167° |
| 2026-05-04 12:58 | 49.01845 | 0.43564 | 35021 ft | 422 kts | 167° |
| 2026-05-04 12:58 | 48.96176 | 0.45928 | 35013 ft | 422 kts | 167° |
| 2026-05-04 12:59 | 48.90512 | 0.48279 | 35015 ft | 422 kts | 167° |
| 2026-05-04 12:59 | 48.84958 | 0.50590 | 35003 ft | 422 kts | 167° |
| 2026-05-04 13:00 | 48.79299 | 0.52936 | 35004 ft | 421 kts | 167° |
| 2026-05-04 13:00 | 48.73635 | 0.55209 | 35000 ft | 421 kts | 167° |
| 2026-05-04 13:01 | 48.67960 | 0.57407 | 34999 ft | 421 kts | 168° |
| 2026-05-04 13:01 | 48.62287 | 0.59601 | 34996 ft | 421 kts | 168° |
| 2026-05-04 13:02 | 48.56621 | 0.61806 | 34996 ft | 420 kts | 167° |
| 2026-05-04 13:02 | 48.50958 | 0.64018 | 35001 ft | 420 kts | 167° |
| 2026-05-04 13:03 | 48.45311 | 0.66307 | 34998 ft | 420 kts | 167° |
| 2026-05-04 13:03 | 48.39676 | 0.68628 | 35001 ft | 420 kts | 167° |
| 2026-05-04 13:04 | 48.34042 | 0.70915 | 34986 ft | 420 kts | 167° |
| 2026-05-04 13:04 | 48.28410 | 0.73184 | 34989 ft | 420 kts | 167° |
| 2026-05-04 13:05 | 48.22760 | 0.75448 | 34996 ft | 420 kts | 167° |
| 2026-05-04 13:05 | 48.17109 | 0.77679 | 34988 ft | 420 kts | 167° |
| 2026-05-04 13:06 | 48.11461 | 0.79890 | 34994 ft | 419 kts | 167° |
| 2026-05-04 13:06 | 48.05812 | 0.82103 | 34994 ft | 420 kts | 167° |
| 2026-05-04 13:07 | 48.00164 | 0.84307 | 34978 ft | 419 kts | 167° |
| 2026-05-04 13:07 | 47.94524 | 0.86503 | 34971 ft | 419 kts | 167° |
| 2026-05-04 13:08 | 47.88888 | 0.88712 | 34969 ft | 419 kts | 167° |
| 2026-05-04 13:08 | 47.83253 | 0.90906 | 34970 ft | 418 kts | 168° |
| 2026-05-04 13:09 | 47.77617 | 0.93091 | 34970 ft | 418 kts | 168° |
| 2026-05-04 13:09 | 47.71985 | 0.95260 | 34970 ft | 418 kts | 168° |
| 2026-05-04 13:10 | 47.66348 | 0.97434 | 34968 ft | 418 kts | 168° |
| 2026-05-04 13:10 | 47.60717 | 0.99607 | 34967 ft | 418 kts | 168° |
| 2026-05-04 13:11 | 47.55083 | 1.01774 | 34965 ft | 418 kts | 168° |
| 2026-05-04 13:11 | 47.49457 | 1.03926 | 34960 ft | 418 kts | 168° |
| 2026-05-04 13:12 | 47.43821 | 1.06001 | 34958 ft | 416 kts | 172° |
| 2026-05-04 13:12 | 47.38075 | 1.06333 | 34955 ft | 414 kts | 182° |
| 2026-05-04 13:13 | 47.32315 | 1.06190 | 34955 ft | 414 kts | 182° |
| 2026-05-04 13:13 | 47.26539 | 1.06055 | 34950 ft | 415 kts | 182° |
| 2026-05-04 13:14 | 47.20762 | 1.05923 | 34952 ft | 416 kts | 182° |
| 2026-05-04 13:14 | 47.14975 | 1.05784 | 34951 ft | 416 kts | 182° |
| 2026-05-04 13:15 | 47.09188 | 1.05643 | 34954 ft | 416 kts | 182° |
| 2026-05-04 13:15 | 47.03397 | 1.05504 | 34960 ft | 416 kts | 182° |
| 2026-05-04 13:16 | 46.97644 | 1.05327 | 34958 ft | 416 kts | 183° |
| 2026-05-04 13:16 | 46.91863 | 1.05063 | 34959 ft | 415 kts | 183° |
| 2026-05-04 13:17 | 46.86084 | 1.04786 | 34954 ft | 415 kts | 183° |
| 2026-05-04 13:17 | 46.80299 | 1.04529 | 34954 ft | 416 kts | 183° |
| 2026-05-04 13:18 | 46.75451 | 1.04326 | 34955 ft | 416 kts | 183° |
| 2026-05-04 13:18 | 46.69660 | 1.04085 | 34954 ft | 416 kts | 183° |
| 2026-05-04 13:19 | 46.63867 | 1.03854 | 34953 ft | 417 kts | 183° |
| 2026-05-04 13:19 | 46.58073 | 1.03607 | 34948 ft | 416 kts | 183° |
| 2026-05-04 13:20 | 46.52317 | 1.03460 | 34949 ft | 418 kts | 178° |
| 2026-05-04 13:20 | 46.46595 | 1.05015 | 34953 ft | 420 kts | 169° |
| 2026-05-04 13:21 | 46.40895 | 1.06927 | 34952 ft | 421 kts | 169° |
| 2026-05-04 13:21 | 46.35188 | 1.08828 | 34951 ft | 421 kts | 169° |
| 2026-05-04 13:22 | 46.29480 | 1.10736 | 34951 ft | 420 kts | 169° |
| 2026-05-04 13:22 | 46.23781 | 1.12627 | 34951 ft | 420 kts | 169° |
| 2026-05-04 13:23 | 46.18075 | 1.14503 | 34952 ft | 421 kts | 169° |
| 2026-05-04 13:23 | 46.12367 | 1.16390 | 34952 ft | 421 kts | 169° |
| 2026-05-04 13:24 | 46.06666 | 1.18280 | 34954 ft | 421 kts | 169° |
| 2026-05-04 13:24 | 46.00957 | 1.20163 | 34957 ft | 421 kts | 169° |
| 2026-05-04 13:25 | 45.92398 | 1.22972 | 34958 ft | 420 kts | 170° |
| 2026-05-04 13:25 | 45.86693 | 1.24840 | 34955 ft | 420 kts | 170° |
| 2026-05-04 13:26 | 45.80990 | 1.26701 | 34951 ft | 420 kts | 170° |
| 2026-05-04 13:26 | 45.75291 | 1.28558 | 34953 ft | 420 kts | 170° |
| 2026-05-04 13:27 | 45.69583 | 1.30421 | 34949 ft | 420 kts | 170° |
| 2026-05-04 13:27 | 45.63883 | 1.32280 | 34946 ft | 420 kts | 171° |
| 2026-05-04 13:28 | 45.58179 | 1.34136 | 34948 ft | 420 kts | 171° |
| 2026-05-04 13:28 | 45.52483 | 1.35982 | 34948 ft | 420 kts | 171° |
| 2026-05-04 13:29 | 45.46838 | 1.37809 | 34945 ft | 420 kts | 171° |
| 2026-05-04 13:29 | 45.41171 | 1.39638 | 34945 ft | 421 kts | 171° |
| 2026-05-04 13:30 | 45.35461 | 1.41470 | 34949 ft | 420 kts | 171° |
| 2026-05-04 13:30 | 45.29748 | 1.43303 | 34944 ft | 421 kts | 171° |
| 2026-05-04 13:31 | 45.24036 | 1.45131 | 34941 ft | 421 kts | 171° |
| 2026-05-04 13:31 | 45.18314 | 1.46964 | 34940 ft | 421 kts | 171° |
| 2026-05-04 13:32 | 45.12593 | 1.48788 | 34947 ft | 421 kts | 171° |
| 2026-05-04 13:32 | 45.06867 | 1.50615 | 34945 ft | 422 kts | 171° |
| 2026-05-04 13:33 | 45.01139 | 1.52439 | 34948 ft | 422 kts | 172° |
| 2026-05-04 13:33 | 44.95409 | 1.54259 | 34950 ft | 422 kts | 172° |
| 2026-05-04 13:34 | 44.89678 | 1.56065 | 34954 ft | 422 kts | 172° |
| 2026-05-04 13:34 | 44.83938 | 1.57873 | 34952 ft | 422 kts | 172° |
| 2026-05-04 13:35 | 44.75326 | 1.60595 | 34959 ft | 423 kts | 172° |
| 2026-05-04 13:36 | 44.69580 | 1.62403 | 34957 ft | 423 kts | 172° |
| 2026-05-04 13:36 | 44.63842 | 1.64205 | 34957 ft | 423 kts | 173° |
| 2026-05-04 13:37 | 44.58103 | 1.66002 | 34955 ft | 423 kts | 173° |
| 2026-05-04 13:37 | 44.52350 | 1.67796 | 34958 ft | 423 kts | 173° |
| 2026-05-04 13:38 | 44.46601 | 1.69582 | 34961 ft | 424 kts | 173° |
| 2026-05-04 13:38 | 44.40837 | 1.71372 | 34961 ft | 424 kts | 173° |
| 2026-05-04 13:39 | 44.35069 | 1.73162 | 34964 ft | 424 kts | 173° |
| 2026-05-04 13:39 | 44.29305 | 1.74943 | 34966 ft | 424 kts | 174° |
| 2026-05-04 13:40 | 44.23512 | 1.76398 | 34968 ft | 422 kts | 177° |
| 2026-05-04 13:40 | 44.17710 | 1.77575 | 34968 ft | 422 kts | 178° |
| 2026-05-04 13:41 | 44.11900 | 1.78773 | 34964 ft | 422 kts | 177° |
| 2026-05-04 13:41 | 44.06093 | 1.80038 | 34964 ft | 423 kts | 177° |
| 2026-05-04 13:42 | 43.97377 | 1.81983 | 34962 ft | 423 kts | 177° |
| 2026-05-04 13:42 | 43.91563 | 1.83008 | 34957 ft | 419 kts | 181° |
| 2026-05-04 13:43 | 43.85753 | 1.83499 | 34961 ft | 418 kts | 182° |
| 2026-05-04 13:43 | 43.79941 | 1.83914 | 34955 ft | 418 kts | 182° |
| 2026-05-04 13:44 | 43.74129 | 1.84437 | 34954 ft | 419 kts | 181° |
| 2026-05-04 13:44 | 43.68315 | 1.85018 | 34951 ft | 419 kts | 181° |
| 2026-05-04 13:45 | 43.62506 | 1.85590 | 34952 ft | 418 kts | 181° |
| 2026-05-04 13:45 | 43.56709 | 1.86156 | 34948 ft | 418 kts | 181° |
| 2026-05-04 13:46 | 43.50909 | 1.86726 | 34947 ft | 418 kts | 181° |
| 2026-05-04 13:46 | 43.45117 | 1.87284 | 34954 ft | 417 kts | 182° |
| 2026-05-04 13:47 | 43.39323 | 1.87843 | 34955 ft | 417 kts | 182° |
| 2026-05-04 13:47 | 43.33532 | 1.88391 | 34957 ft | 417 kts | 182° |
| 2026-05-04 13:48 | 43.27743 | 1.88935 | 34961 ft | 417 kts | 182° |
| 2026-05-04 13:48 | 43.21958 | 1.89492 | 34963 ft | 416 kts | 182° |
| 2026-05-04 13:49 | 43.16179 | 1.90050 | 34963 ft | 416 kts | 182° |
| 2026-05-04 13:49 | 43.10409 | 1.90594 | 34964 ft | 415 kts | 182° |
| 2026-05-04 13:50 | 43.04643 | 1.91138 | 34963 ft | 415 kts | 182° |
| 2026-05-04 13:50 | 42.98884 | 1.91684 | 34962 ft | 415 kts | 182° |
| 2026-05-04 13:51 | 42.93133 | 1.92233 | 34961 ft | 414 kts | 182° |
| 2026-05-04 13:51 | 42.87381 | 1.92781 | 34963 ft | 414 kts | 182° |
| 2026-05-04 13:52 | 42.78779 | 1.93597 | 34959 ft | 413 kts | 182° |
| 2026-05-04 13:53 | 42.73662 | 1.94073 | 34961 ft | 413 kts | 182° |
| 2026-05-04 13:53 | 42.67928 | 1.94649 | 34961 ft | 416 kts | 179° |
| 2026-05-04 13:54 | 42.59401 | 1.97523 | 34968 ft | 423 kts | 173° |
| 2026-05-04 13:55 | 42.50912 | 2.00572 | 34963 ft | 422 kts | 173° |
| 2026-05-04 13:55 | 42.42396 | 2.03621 | 34959 ft | 421 kts | 173° |
| 2026-05-04 13:56 | 42.36723 | 2.05656 | 34963 ft | 422 kts | 173° |
| 2026-05-04 13:57 | 42.28221 | 2.08690 | 34962 ft | 421 kts | 173° |
| 2026-05-04 13:58 | 42.16897 | 2.12697 | 34967 ft | 421 kts | 173° |
| 2026-05-04 13:58 | 42.08464 | 2.15684 | 34966 ft | 420 kts | 173° |
| 2026-05-04 13:59 | 42.02834 | 2.17662 | 34971 ft | 421 kts | 173° |
| 2026-05-04 14:00 | 41.94342 | 2.20654 | 34968 ft | 421 kts | 173° |
| 2026-05-04 14:00 | 41.85885 | 2.23625 | 34973 ft | 420 kts | 173° |
| 2026-05-04 14:01 | 41.80222 | 2.25605 | 34972 ft | 421 kts | 173° |
| 2026-05-04 14:02 | 41.71720 | 2.28570 | 34973 ft | 421 kts | 173° |
| 2026-05-04 14:02 | 41.66051 | 2.30548 | 34976 ft | 421 kts | 173° |
| 2026-05-04 14:03 | 41.60376 | 2.32531 | 34979 ft | 422 kts | 173° |
| 2026-05-04 14:03 | 41.54696 | 2.34510 | 34975 ft | 422 kts | 173° |
| 2026-05-04 14:04 | 41.46171 | 2.37456 | 34982 ft | 422 kts | 173° |
| 2026-05-04 14:04 | 41.40486 | 2.39424 | 34982 ft | 422 kts | 174° |
| 2026-05-04 14:05 | 41.31961 | 2.42362 | 34977 ft | 422 kts | 174° |
| 2026-05-04 14:06 | 41.26268 | 2.44323 | 34978 ft | 422 kts | 174° |
| 2026-05-04 14:06 | 41.20591 | 2.46284 | 34976 ft | 423 kts | 174° |
| 2026-05-04 14:07 | 41.14911 | 2.48237 | 34978 ft | 423 kts | 174° |
| 2026-05-04 14:07 | 41.09200 | 2.50187 | 34975 ft | 424 kts | 174° |
| 2026-05-04 14:08 | 41.03482 | 2.52142 | 34976 ft | 424 kts | 174° |
| 2026-05-04 14:08 | 40.97761 | 2.54101 | 34978 ft | 425 kts | 174° |
| 2026-05-04 14:09 | 40.89222 | 2.57007 | 34593 ft | 417 kts | 174° |
| 2026-05-04 14:09 | 40.86391 | 2.57970 | 33011 ft | 424 kts | 174° |
| 2026-05-04 14:10 | 40.80717 | 2.59898 | 31236 ft | 408 kts | 173° |
| 2026-05-04 14:10 | 40.78000 | 2.60835 | 30425 ft | 399 kts | 173° |
| 2026-05-04 14:10 | 40.75311 | 2.61753 | 29586 ft | 404 kts | 174° |
| 2026-05-04 14:10 | 40.72583 | 2.62663 | 28651 ft | 409 kts | 173° |
| 2026-05-04 14:11 | 40.69808 | 2.63584 | 27679 ft | 414 kts | 173° |
| 2026-05-04 14:11 | 40.64151 | 2.65476 | 25570 ft | 425 kts | 173° |
| 2026-05-04 14:11 | 40.61265 | 2.66450 | 24437 ft | 431 kts | 172° |
| 2026-05-04 14:12 | 40.58354 | 2.67435 | 23433 ft | 433 kts | 172° |
| 2026-05-04 14:12 | 40.55438 | 2.68426 | 22550 ft | 431 kts | 172° |
| 2026-05-04 14:12 | 40.49699 | 2.70657 | 20832 ft | 434 kts | 163° |
| 2026-05-04 14:13 | 40.46990 | 2.72441 | 19949 ft | 437 kts | 156° |
| 2026-05-04 14:13 | 40.44339 | 2.74372 | 19070 ft | 435 kts | 156° |
| 2026-05-04 14:13 | 40.41698 | 2.76291 | 18194 ft | 433 kts | 155° |
| 2026-05-04 14:13 | 40.39089 | 2.78185 | 17848 ft | 420 kts | 155° |
| 2026-05-04 14:14 | 40.36579 | 2.80009 | 17723 ft | 405 kts | 155° |
| 2026-05-04 14:14 | 40.31768 | 2.83484 | 16965 ft | 389 kts | 156° |
| 2026-05-04 14:14 | 40.29404 | 2.85184 | 16465 ft | 385 kts | 155° |
| 2026-05-04 14:15 | 40.24768 | 2.88517 | 15504 ft | 375 kts | 155° |
| 2026-05-04 14:15 | 40.20249 | 2.91762 | 14498 ft | 366 kts | 155° |
| 2026-05-04 14:16 | 40.15838 | 2.94941 | 13500 ft | 358 kts | 154° |
| 2026-05-04 14:16 | 40.13665 | 2.96501 | 13020 ft | 353 kts | 154° |
| 2026-05-04 14:17 | 40.09407 | 2.99549 | 12017 ft | 345 kts | 154° |
| 2026-05-04 14:17 | 40.07314 | 3.01050 | 11518 ft | 342 kts | 154° |
| 2026-05-04 14:17 | 40.03187 | 3.04013 | 10513 ft | 336 kts | 154° |
| 2026-05-04 14:18 | 40.01148 | 3.05471 | 10017 ft | 333 kts | 154° |
| 2026-05-04 14:18 | 39.97143 | 3.08320 | 9083 ft | 327 kts | 155° |
| 2026-05-04 14:19 | 39.93159 | 3.10845 | 8420 ft | 310 kts | 169° |
| 2026-05-04 14:19 | 39.91069 | 3.11212 | 8098 ft | 300 kts | 184° |
| 2026-05-04 14:19 | 39.89011 | 3.11002 | 7771 ft | 294 kts | 188° |
| 2026-05-04 14:19 | 39.86995 | 3.10751 | 7447 ft | 290 kts | 188° |
| 2026-05-04 14:20 | 39.84963 | 3.10495 | 7128 ft | 307 kts | 188° |
| 2026-05-04 14:20 | 39.82794 | 3.10221 | 6766 ft | 317 kts | 188° |
| 2026-05-04 14:20 | 39.80604 | 3.09946 | 6329 ft | 315 kts | 188° |
| 2026-05-04 14:21 | 39.76102 | 3.09384 | 5422 ft | 339 kts | 187° |
| 2026-05-04 14:21 | 39.73835 | 3.08907 | 4981 ft | 318 kts | 197° |
| 2026-05-04 14:21 | 39.71867 | 3.07867 | 4574 ft | 295 kts | 210° |
| 2026-05-04 14:21 | 39.70269 | 3.06402 | 4410 ft | 269 kts | 222° |
| 2026-05-04 14:22 | 39.69031 | 3.04705 | 4234 ft | 253 kts | 232° |
| 2026-05-04 14:22 | 39.68077 | 3.02832 | 4131 ft | 244 kts | 238° |
| 2026-05-04 14:22 | 39.67226 | 3.01013 | 4024 ft | 234 kts | 238° |
| 2026-05-04 14:22 | 39.66396 | 2.99241 | 3931 ft | 224 kts | 238° |
| 2026-05-04 14:23 | 39.64814 | 2.95868 | 3466 ft | 215 kts | 238° |
| 2026-05-04 14:23 | 39.64040 | 2.94220 | 3193 ft | 213 kts | 238° |
| 2026-05-04 14:23 | 39.63290 | 2.92622 | 2913 ft | 212 kts | 238° |
| 2026-05-04 14:24 | 39.62523 | 2.90992 | 2632 ft | 210 kts | 238° |
| 2026-05-04 14:24 | 39.61766 | 2.89379 | 2353 ft | 207 kts | 238° |
| 2026-05-04 14:24 | 39.61039 | 2.87833 | 2076 ft | 195 kts | 237° |
| 2026-05-04 14:24 | 39.60356 | 2.86385 | 1863 ft | 178 kts | 237° |
| 2026-05-04 14:25 | 39.59744 | 2.85084 | 1611 ft | 161 kts | 237° |
| 2026-05-04 14:25 | 39.58682 | 2.82829 | 1225 ft | 137 kts | 237° |
| 2026-05-04 14:25 | 39.58192 | 2.81788 | 1042 ft | 134 kts | 237° |
| 2026-05-04 14:26 | 39.57871 | 2.81109 | 927 ft | 133 kts | 237° |
| 2026-05-04 14:26 | 39.57390 | 2.80088 | 749 ft | 132 kts | 237° |
| 2026-05-04 14:26 | 39.56913 | 2.79068 | 580 ft | 132 kts | 238° |
| 2026-05-04 14:26 | 39.56442 | 2.78030 | 364 ft | 134 kts | 238° |
| 2026-05-04 14:27 | 39.55950 | 2.76994 | 219 ft | 135 kts | 237° |
| 2026-05-04 14:27 | 39.55454 | 2.75963 | 49 ft | 135 kts | 237° |
| 2026-05-04 14:27 | 39.55005 | 2.75018 | 30 ft | 105 kts | 238° |
| 2026-05-04 14:27 | 39.54707 | 2.74397 | 37 ft | 59 kts | 238° |
| 2026-05-04 14:28 | 39.54587 | 2.74110 | 37 ft | 29 kts | 251° |
| 2026-05-04 14:28 | 39.54552 | 2.73869 | 35 ft | 16 kts | 277° |
| 2026-05-04 14:28 | 39.54556 | 2.73791 | 36 ft | 14 kts | 267° |
| 2026-05-04 14:28 | 39.54562 | 2.73713 | 36 ft | 10 kts | 284° |
| 2026-05-04 14:29 | 39.54675 | 2.73706 | 36 ft | 16 kts | 60° |
| 2026-05-04 14:29 | 39.54820 | 2.73985 | 35 ft | 13 kts | 25° |
| 2026-05-04 14:30 | 39.54920 | 2.73943 | 36 ft | 20 kts | 327° |
| 2026-05-04 14:30 | 39.55080 | 2.73819 | 36 ft | 30 kts | 328° |
| 2026-05-04 14:30 | 39.55180 | 2.73721 | 36 ft | 7 kts | 285° |
| 2026-05-04 14:31 | 39.55198 | 2.73623 | 36 ft | 18 kts | 324° |
| 2026-05-04 14:31 | 39.55416 | 2.73445 | 31 ft | 11 kts | 319° |
| 2026-05-04 14:32 | 39.55350 | 2.73261 | 31 ft | 10 kts | 213° |
| 2026-05-04 14:32 | 39.55296 | 2.73239 | 32 ft | 13 kts | 197° |
| 2026-05-04 14:32 | 39.55253 | 2.73222 | 33 ft | 2 kts | 196° |
| 2026-05-04 14:32 | 39.55252 | 2.73222 | 33 ft | 0 kts | 196° |